Wrangell, AK (99929)

8:59 AM AKDT on September 03, 2015 (GMT -0800)
Wrangell | | Change Station
CLOSE
Current Station
Airport
Location: Wrangell,
Elevation: 43 ft
Nearby Weather Stations

Elev 43 ft 56.48 °N, 132.37 °W | Updated 3 minutes ago

Partly Cloudy
Partly Cloudy
50 °F
Feels Like 50 °F
N
0
Wind Variable Wind from North

Today
High -- | Low -- °F
--% Chance of Precip.
Yesterday
High -- | Low -- °F
Precip. -- in
5:56 AM 7:39 PM
Waning Gibbous, 68% visible
Pressure 30.08 in
Visibility 10.0 miles
Clouds Few 6000 ft
Dew Point 45 °F
Humidity 82%
Rainfall 0.00 in
Snow Depth Not available.
UV 2 out of 12
Pollen Not available.
Air Quality Not available.
Flu Activity Not available.
METAR PAWG 031656Z 00000KT 10SM FEW060 10/07 A3008 RMK AO1 WEA: NONE (KB)
Pressure 30.08 in
Visibility 10.0 miles
Clouds Few 6000 ft
Dew Point 45 °F
Humidity 82%
Rainfall 0.00 in
Snow Depth Not available.
UV 2 out of 12
Pollen Not available.
Air Quality Not available.
Flu Activity Not available.
METAR PAWG 031656Z 00000KT 10SM FEW060 10/07 A3008 RMK AO1 WEA: NONE (KB)

10-Day Weather Forecast

×

Almanac

Astronomy

Sep. 03, 2015 Rise Set
Actual Time
Civil Twilight
Nautical Twilight
Astronomical Twilight
Moon
Length of Visible Light
Length of Day
Tomorrow will be .
, % of the Moon is Illuminated

Today's Extremes

State Highs State Lows

Community

WunderPhotos

Upload Photos

1,851,988 photos uploaded!

WunderBlogs® & News

Nearby

Air Quality

  Air Quality AQ Index Pollutant
Not available.

Snow Depth

Station Depth Elevation

Earthquake Activity

City Distance Mag. Time & Date
Minimum magnitude displayed is 2.5.

Coastal Water Temperatures

Place Temperature

Stations

Nearby Weather Stations

Station Location Temp. Windchill Dew Point Humidity Wind Precip. Elev Updated Type